Time;durP1;ratioP1;P1;durP2;ratioP2;P2;SDS_P1;SDS_P2;PMS_P1;PMS_P2;Temp;Humidity;BMP_temperature;BMP_pressure;BME280_temperature;BME280_humidity;BME280_pressure;Samples;Min_cycle;Max_cycle;Signal;HPM_P1;HPM_P2
2021/08/05 00:02:15;;;;;;;;;;;16.20;99.90;;;14.91;92.02;100800.13;3530378;39;102366;-41
2021/08/05 00:04:44;;;;;;;;;;;16.20;99.90;;;14.92;92.29;100805.38;3530347;39;102442;-40
2021/08/05 00:07:13;;;;;;;;;;;16.20;99.90;;;14.92;92.30;100802.63;3530782;39;102314;-42
2021/08/05 00:09:43;;;;;;;;;;;16.20;99.90;;;14.94;92.33;100800.47;3530290;39;104895;-40
2021/08/05 00:12:12;;;;;;;;;;;16.20;99.90;;;14.97;92.34;100799.16;3530914;39;102188;-39
2021/08/05 00:14:41;;;;;;;;;;;16.20;99.90;;;14.98;92.33;100795.34;3530623;39;102325;-40
2021/08/05 00:17:09;;;;;;;;;;;16.30;99.90;;;14.99;92.03;100785.19;3530308;39;102597;-39
2021/08/05 00:19:36;;;;;;;;;;;16.30;99.90;;;15.00;91.86;100781.38;3529902;39;103199;-39
2021/08/05 00:22:04;;;;;;;;;;;16.30;99.90;;;15.00;91.36;100784.94;3529701;39;102299;-40
2021/08/05 00:24:32;;;;;;;;;;;16.30;99.90;;;15.02;91.57;100780.03;3530194;39;104041;-39
2021/08/05 00:26:59;;;;;;;;;;;16.30;99.90;;;15.03;92.08;100775.38;3530083;39;102841;-40
2021/08/05 00:29:27;;;;;;;;;;;16.30;99.90;;;15.07;92.39;100784.81;3529829;39;102433;-40
2021/08/05 00:31:55;;;;;;;;;;;16.30;99.90;;;15.07;92.73;100782.88;3530150;39;102236;-39
2021/08/05 00:34:22;;;;;;;;;;;16.40;99.90;;;15.07;92.89;100790.31;3528910;39;103255;-41
2021/08/05 00:36:50;;;;;;;;;;;16.40;99.90;;;15.08;93.01;100787.28;3530479;39;102390;-39
2021/08/05 00:39:17;;;;;;;;;;;16.40;99.90;;;15.10;93.24;100785.13;3530665;39;102169;-40
2021/08/05 00:41:44;;;;;;;;;;;16.40;99.90;;;15.08;93.02;100779.06;3530071;39;102430;-42
2021/08/05 00:44:12;;;;;;;;;;;16.40;99.90;;;15.10;93.30;100776.88;3529734;39;102286;-39
2021/08/05 00:46:39;;;;;;;;;;;16.40;99.90;;;15.09;92.99;100769.72;3529693;39;102440;-39
2021/08/05 00:49:07;;;;;;;;;;;16.30;99.90;;;15.09;92.92;100768.91;3528962;39;102300;-40
2021/08/05 00:51:35;;;;;;;;;;;16.40;99.90;;;15.13;92.49;100772.00;3529231;39;103861;-40
2021/08/05 00:54:03;;;;;;;;;;;16.40;99.90;;;15.12;92.23;100753.81;3529011;39;102295;-42
2021/08/05 00:56:30;;;;;;;;;;;16.40;99.90;;;15.19;92.42;100769.09;3528961;39;102481;-40
2021/08/05 00:58:58;;;;;;;;;;;16.40;99.90;;;15.20;92.69;100764.44;3529947;39;102153;-40
2021/08/05 01:01:36;;;;;;;;;;;16.50;99.90;;;15.19;93.12;100758.09;3528749;39;102484;-40
2021/08/05 01:04:06;;;;;;;;;;;16.40;99.90;;;15.20;93.37;100756.22;3530426;39;103418;-39
2021/08/05 01:06:42;;;;;;;;;;;16.50;99.90;;;15.20;93.23;100747.97;3528690;39;103835;-41
2021/08/05 01:09:25;;;;;;;;;;;16.40;99.90;;;15.18;93.75;100750.13;3529658;39;102247;-39
2021/08/05 01:12:09;;;;;;;;;;;16.40;99.90;;;15.19;93.83;100754.53;3528616;39;102850;-40
2021/08/05 01:14:39;;;;;;;;;;;16.50;99.90;;;15.18;93.98;100750.94;3529447;39;104063;-40
2021/08/05 01:17:10;;;;;;;;;;;16.50;99.90;;;15.17;94.17;100749.28;3529855;39;102743;-40
2021/08/05 01:20:08;;;;;;;;;;;16.40;99.90;;;15.15;94.42;100740.44;3529726;39;102201;-39
2021/08/05 01:23:00;;;;;;;;;;;16.40;99.90;;;15.15;94.56;100742.38;3525806;39;102759;-40
2021/08/05 01:25:52;;;;;;;;;;;16.40;99.90;;;15.12;94.45;100740.09;3529330;39;103968;-40
2021/08/05 01:28:19;;;;;;;;;;;16.40;99.90;;;15.12;94.35;100742.84;3529781;39;102231;-39
2021/08/05 01:30:49;;;;;;;;;;;16.40;99.90;;;15.10;94.19;100740.34;3529772;39;104080;-42
2021/08/05 01:33:19;;;;;;;;;;;16.30;99.90;;;15.11;93.98;100747.50;3529398;39;102839;-40
2021/08/05 01:35:51;;;;;;;;;;;16.40;99.90;;;15.11;93.87;100742.03;3531080;39;103119;-39
2021/08/05 01:38:18;;;;;;;;;;;16.40;99.90;;;15.08;94.02;100740.59;3530029;39;102822;-39
2021/08/05 01:40:48;;;;;;;;;;;16.30;99.90;;;15.09;94.49;100735.94;3530950;39;102996;-40
2021/08/05 01:43:17;;;;;;;;;;;16.40;99.90;;;15.08;94.45;100737.03;3531244;39;102819;-40
2021/08/05 01:45:47;;;;;;;;;;;16.40;99.90;;;15.07;94.69;100733.44;3529440;39;102192;-40
2021/08/05 01:48:16;;;;;;;;;;;16.40;99.90;;;15.05;94.86;100730.09;3530391;39;102468;-39
2021/08/05 01:50:44;;;;;;;;;;;16.30;99.90;;;15.05;95.08;100719.09;3531085;39;103194;-40
2021/08/05 01:53:15;;;;;;;;;;;16.40;99.90;;;15.06;95.20;100715.28;3531235;39;102893;-40
2021/08/05 01:55:43;;;;;;;;;;;16.40;99.90;;;15.04;95.19;100717.44;3531013;39;103052;-40
2021/08/05 01:58:11;;;;;;;;;;;16.30;99.90;;;15.05;95.48;100712.78;3530188;39;102228;-39
2021/08/05 02:00:38;;;;;;;;;;;16.30;99.90;;;15.02;95.35;100719.59;3529928;39;103049;-42
2021/08/05 02:03:09;;;;;;;;;;;16.30;99.90;;;15.01;95.25;100717.94;3530813;39;102877;-39
2021/08/05 02:06:10;;;;;;;;;;;16.30;99.90;;;15.01;95.52;100717.94;3529680;39;105704;-42
2021/08/05 02:08:47;;;;;;;;;;;16.30;99.90;;;14.98;95.22;100723.91;3531127;39;102192;-39
2021/08/05 02:11:14;;;;;;;;;;;16.20;99.90;;;14.96;95.55;100721.41;3531069;39;104827;-39
2021/08/05 02:13:43;;;;;;;;;;;16.30;99.90;;;14.96;95.83;100720.59;3531123;39;102076;-39
2021/08/05 02:16:17;;;;;;;;;;;16.20;99.90;;;14.95;95.50;100713.41;3660657;22;104066;-38
2021/08/05 02:18:49;;;;;;;;;;;16.20;99.90;;;14.93;95.55;100712.84;3521249;39;102917;-41
2021/08/05 02:21:19;;;;;;;;;;;16.20;99.90;;;14.90;95.78;100702.34;3530277;39;104135;-41
2021/08/05 02:23:47;;;;;;;;;;;16.20;99.90;;;14.92;95.95;100697.44;3530616;39;102650;-40
2021/08/05 02:26:15;;;;;;;;;;;16.20;99.90;;;14.92;95.67;100713.91;3530681;39;105439;-41
2021/08/05 02:28:43;;;;;;;;;;;16.20;99.90;;;14.92;95.89;100702.94;3530970;39;102648;-41
2021/08/05 02:31:11;;;;;;;;;;;16.20;99.90;;;14.89;96.02;100697.94;3530461;39;102141;-41
2021/08/05 02:33:38;;;;;;;;;;;16.20;99.90;;;14.89;96.14;100698.75;3530294;39;102267;-41
2021/08/05 02:36:06;;;;;;;;;;;16.20;99.90;;;14.89;95.95;100697.94;3530220;39;104381;-41
2021/08/05 02:38:34;;;;;;;;;;;16.20;99.90;;;14.87;96.27;100695.41;3530376;39;104058;-41
2021/08/05 02:41:03;;;;;;;;;;;16.20;99.90;;;14.86;96.12;100692.94;3530375;39;102268;-41
2021/08/05 02:43:33;;;;;;;;;;;16.10;99.90;;;14.82;96.17;100693.38;3521391;39;102835;-41
2021/08/05 02:46:01;;;;;;;;;;;16.10;99.90;;;14.84;96.30;100695.06;3530565;39;103902;-41
2021/08/05 02:48:29;;;;;;;;;;;16.10;99.90;;;14.84;96.43;100695.06;3521521;39;102286;-41
2021/08/05 02:50:58;;;;;;;;;;;16.10;99.90;;;14.82;96.26;100693.38;3530436;39;102307;-41
2021/08/05 02:53:27;;;;;;;;;;;16.10;99.90;;;14.81;96.26;100693.66;3530181;39;102236;-41
2021/08/05 02:55:56;;;;;;;;;;;16.10;99.90;;;14.76;96.28;100691.63;3530307;39;102367;-41
2021/08/05 02:58:24;;;;;;;;;;;16.10;99.90;;;14.80;96.21;100697.47;3530558;39;102105;-41
2021/08/05 03:00:51;;;;;;;;;;;16.10;99.90;;;14.71;96.29;100674.19;3530539;39;102744;-41
2021/08/05 03:03:23;;;;;;;;;;;16.10;99.90;;;14.79;96.68;100690.31;3530100;39;102281;-41
2021/08/05 03:05:55;;;;;;;;;;;16.10;99.90;;;14.78;96.33;100692.22;3530789;39;103057;-41
2021/08/05 03:08:22;;;;;;;;;;;16.00;99.90;;;14.72;96.65;100682.22;3530505;39;102336;-41
2021/08/05 03:10:50;;;;;;;;;;;16.10;99.90;;;14.75;96.63;100687.22;3530243;39;102303;-41
2021/08/05 03:13:17;;;;;;;;;;;16.10;99.90;;;14.79;96.59;100693.06;3530596;39;102416;-41
2021/08/05 03:15:44;;;;;;;;;;;16.00;99.90;;;14.78;96.89;100689.47;3529982;39;102376;-41
2021/08/05 03:18:11;;;;;;;;;;;16.10;99.90;;;14.77;96.97;100690.53;3530480;39;102191;-41
2021/08/05 03:20:41;;;;;;;;;;;16.10;99.90;;;14.79;97.11;100688.38;3530722;39;103976;-41
2021/08/05 03:23:08;;;;;;;;;;;16.00;99.90;;;14.78;97.13;100688.66;3530517;39;102274;-41
2021/08/05 03:25:35;;;;;;;;;;;16.10;99.90;;;14.78;96.83;100685.91;3530042;39;102289;-41
2021/08/05 03:28:03;;;;;;;;;;;16.00;99.90;;;14.75;97.06;100680.91;3529830;39;102408;-41
2021/08/05 03:30:30;;;;;;;;;;;16.10;99.90;;;14.75;96.96;100689.13;3530699;39;103373;-41
2021/08/05 03:33:00;;;;;;;;;;;16.00;99.90;;;14.74;97.13;100680.06;3530345;39;102303;-41
2021/08/05 03:35:28;;;;;;;;;;;16.00;99.90;;;14.75;97.42;100684.47;3530370;39;103069;-41
2021/08/05 03:37:55;;;;;;;;;;;16.00;99.90;;;14.74;97.41;100679.22;3530644;39;102815;-41
2021/08/05 03:40:22;;;;;;;;;;;16.00;99.90;;;14.74;97.78;100676.50;3530071;39;103108;-41
2021/08/05 03:42:50;;;;;;;;;;;16.00;99.90;;;14.74;97.36;100681.97;3530496;39;102391;-41
2021/08/05 03:45:17;;;;;;;;;;;16.00;99.90;;;14.73;97.42;100683.88;3529742;39;102172;-41
2021/08/05 03:47:44;;;;;;;;;;;16.10;99.90;;;14.72;97.34;100671.22;3530533;39;102348;-41
2021/08/05 03:50:12;;;;;;;;;;;16.00;99.90;;;14.69;97.20;100674.44;3530111;39;103300;-41
2021/08/05 03:52:40;;;;;;;;;;;16.00;99.90;;;14.69;97.44;100674.44;3530443;39;102255;-41
2021/08/05 03:55:13;;;;;;;;;;;16.00;99.90;;;14.69;97.51;100668.94;3529387;39;102543;-41
2021/08/05 03:57:41;;;;;;;;;;;16.00;99.90;;;14.65;97.56;100671.31;3530112;39;102175;-41
2021/08/05 04:00:10;;;;;;;;;;;16.00;99.90;;;14.67;97.50;100673.84;3530643;39;102541;-41
2021/08/05 04:02:38;;;;;;;;;;;15.90;99.90;;;14.67;97.78;100671.91;3530098;39;102288;-41
2021/08/05 04:05:06;;;;;;;;;;;15.90;99.90;;;14.65;97.74;100665.03;3530183;39;102509;-41
2021/08/05 04:07:33;;;;;;;;;;;16.00;99.90;;;14.68;97.86;100673.59;3529879;39;102195;-41
2021/08/05 04:10:01;;;;;;;;;;;16.00;99.90;;;14.68;98.10;100667.28;3530480;39;103259;-41
2021/08/05 04:12:28;;;;;;;;;;;16.00;99.90;;;14.68;98.10;100670.84;3530201;39;102241;-41
2021/08/05 04:14:55;;;;;;;;;;;16.00;99.90;;;14.66;98.01;100673.00;3529637;39;102660;-41
2021/08/05 04:17:24;;;;;;;;;;;16.00;99.90;;;14.65;97.84;100670.50;3529742;39;102442;-41
2021/08/05 04:19:51;;;;;;;;;;;15.90;99.90;;;14.63;97.78;100667.19;3529798;39;102373;-41
2021/08/05 04:22:18;;;;;;;;;;;15.90;99.90;;;14.63;97.80;100672.66;3529525;39;102572;-41
2021/08/05 04:24:46;;;;;;;;;;;15.90;99.90;;;14.63;97.87;100658.94;3529723;39;103048;-41
2021/08/05 04:27:13;;;;;;;;;;;15.90;99.90;;;14.60;98.05;100654.75;3530050;39;102478;-41
2021/08/05 04:29:40;;;;;;;;;;;15.90;99.90;;;14.64;98.32;100664.16;3530297;39;102179;-41
2021/08/05 04:32:07;;;;;;;;;;;15.90;99.90;;;14.64;98.39;100664.16;3529679;39;102579;-41
2021/08/05 04:34:35;;;;;;;;;;;15.90;99.90;;;14.62;98.07;100669.06;3529714;39;103057;-41
2021/08/05 04:37:02;;;;;;;;;;;15.90;99.90;;;14.61;97.79;100672.06;3529758;39;102165;-41
2021/08/05 04:39:29;;;;;;;;;;;15.90;99.90;;;14.61;97.79;100674.81;3530233;39;103287;-41
2021/08/05 04:41:56;;;;;;;;;;;15.90;99.90;;;14.61;97.63;100667.41;3530127;39;102168;-41
2021/08/05 04:44:24;;;;;;;;;;;15.90;99.90;;;14.61;97.60;100669.34;3520583;39;102315;-41
2021/08/05 04:46:51;;;;;;;;;;;15.90;99.90;;;14.63;97.58;100665.25;3529326;39;102426;-41
2021/08/05 04:49:18;;;;;;;;;;;15.90;99.90;;;14.65;97.50;100665.03;3530102;39;104042;-41
2021/08/05 04:51:46;;;;;;;;;;;15.90;99.90;;;14.69;97.85;100663.44;3529650;39;102382;-41
2021/08/05 04:54:13;;;;;;;;;;;15.90;99.90;;;14.73;97.48;100663.84;3530029;39;103693;-41
2021/08/05 04:56:40;;;;;;;;;;;15.90;99.90;;;14.71;98.02;100661.31;3529680;39;102545;-42
2021/08/05 04:59:07;;;;;;;;;;;16.00;99.90;;;14.77;97.35;100656.78;3529514;39;102549;-41
2021/08/05 05:01:34;;;;;;;;;;;16.00;99.90;;;14.79;97.53;100660.91;3529816;39;102480;-41
2021/08/05 05:04:02;;;;;;;;;;;16.00;99.90;;;14.76;97.24;100642.19;3529069;39;103179;-40
2021/08/05 05:06:29;;;;;;;;;;;16.10;99.90;;;14.85;97.22;100650.03;3529745;39;102475;-41
2021/08/05 05:08:57;;;;;;;;;;;16.10;99.90;;;14.87;97.17;100642.41;3530624;39;102216;-41
2021/08/05 05:11:24;;;;;;;;;;;16.10;99.90;;;14.93;97.09;100644.16;3530757;39;102098;-41
2021/08/05 05:13:51;;;;;;;;;;;16.10;99.90;;;14.96;96.89;100640.91;3530772;39;102966;-40
2021/08/05 05:16:19;;;;;;;;;;;16.20;99.90;;;14.95;97.00;100629.09;3530568;39;103515;-41
2021/08/05 05:18:46;;;;;;;;;;;16.20;99.90;;;15.06;96.59;100637.53;3531147;39;102211;-41
2021/08/05 05:21:13;;;;;;;;;;;16.20;99.90;;;15.14;96.42;100639.88;3530717;39;102165;-41
2021/08/05 05:23:40;;;;;;;;;;;16.30;99.90;;;15.22;96.43;100639.44;3530827;39;103037;-41
2021/08/05 05:26:07;;;;;;;;;;;16.40;99.90;;;15.33;96.20;100643.22;3530389;39;102789;-41
2021/08/05 05:28:36;;;;;;;;;;;16.50;99.90;;;15.41;95.43;100630.97;3531057;39;102334;-41
2021/08/05 05:31:04;;;;;;;;;;;16.50;99.90;;;15.57;95.07;100634.81;3530783;39;102828;-41
2021/08/05 05:33:31;;;;;;;;;;;16.60;99.90;;;15.77;94.86;100644.47;3530862;39;102239;-41
2021/08/05 05:35:58;;;;;;;;;;;16.80;99.90;;;15.89;93.84;100638.88;3530559;39;102373;-40
2021/08/05 05:38:26;;;;;;;;;;;16.90;99.90;;;15.98;92.22;100637.38;3530546;39;102272;-40
2021/08/05 05:40:53;;;;;;;;;;;17.00;99.90;;;16.06;91.56;100630.59;3531157;39;102380;-41
2021/08/05 05:43:20;;;;;;;;;;;17.10;99.90;;;16.13;90.63;100639.50;3530863;39;103511;-41
2021/08/05 05:45:47;;;;;;;;;;;17.10;99.90;;;16.16;89.92;100643.66;3530583;39;102483;-41
2021/08/05 05:48:15;;;;;;;;;;;17.20;99.90;;;16.28;90.03;100647.13;3531047;39;102373;-40
2021/08/05 05:50:42;;;;;;;;;;;17.30;99.90;;;16.43;90.04;100638.22;3530785;39;102759;-41
2021/08/05 05:53:10;;;;;;;;;;;17.40;99.90;;;16.53;88.84;100638.38;3530580;39;102236;-41
2021/08/05 05:55:39;;;;;;;;;;;17.50;99.90;;;16.69;87.73;100635.78;3530722;39;102324;-41
2021/08/05 05:58:07;;;;;;;;;;;17.60;99.90;;;16.86;86.62;100638.47;3530885;39;102128;-41
2021/08/05 06:00:34;;;;;;;;;;;17.80;99.90;;;17.01;85.32;100643.31;3531070;39;102174;-41
2021/08/05 06:03:05;;;;;;;;;;;17.90;99.90;;;17.23;85.72;100650.66;3530838;39;103025;-41
2021/08/05 06:05:33;;;;;;;;;;;18.00;99.90;;;17.36;83.13;100658.53;3530148;39;102405;-41
2021/08/05 06:08:01;;;;;;;;;;;18.20;99.90;;;17.59;83.06;100656.50;3531113;39;103857;-41
2021/08/05 06:10:28;;;;;;;;;;;18.30;99.90;;;17.78;81.63;100661.63;3530721;39;102315;-41
2021/08/05 06:12:55;;;;;;;;;;;18.60;99.90;;;17.97;81.66;100664.78;3530574;39;103118;-41
2021/08/05 06:15:23;;;;;;;;;;;18.70;99.90;;;18.12;81.59;100658.53;3521514;39;102792;-41
2021/08/05 06:17:50;;;;;;;;;;;18.90;99.90;;;18.23;81.06;100663.00;3530958;39;103109;-41
2021/08/05 06:20:19;;;;;;;;;;;19.10;99.90;;;18.26;80.33;100656.94;3530293;39;102579;-41
2021/08/05 06:22:48;;;;;;;;;;;19.20;99.90;;;18.33;80.77;100661.41;3530744;39;102525;-41
2021/08/05 06:25:17;;;;;;;;;;;19.20;99.90;;;18.37;79.85;100666.13;3530339;39;102363;-41
2021/08/05 06:27:45;;;;;;;;;;;19.30;99.90;;;18.38;79.75;100656.72;3530831;39;103193;-41
2021/08/05 06:30:14;;;;;;;;;;;19.30;99.90;;;18.39;78.36;100661.16;3530878;39;103112;-41
2021/08/05 06:32:41;;;;;;;;;;;19.30;99.90;;;18.40;78.78;100662.81;3530620;39;104083;-41
2021/08/05 06:35:10;;;;;;;;;;;19.30;99.90;;;18.52;79.24;100659.00;3530121;39;102748;-41
2021/08/05 06:37:38;;;;;;;;;;;19.40;99.90;;;18.51;78.19;100663.69;3530440;39;102377;-41
2021/08/05 06:40:06;;;;;;;;;;;19.40;99.90;;;18.50;77.83;100662.03;3530547;39;102202;-41
2021/08/05 06:42:35;;;;;;;;;;;19.40;99.90;;;18.55;76.38;100669.53;3530242;39;102376;-41
2021/08/05 06:45:05;;;;;;;;;;;19.50;99.90;;;18.58;77.39;100657.13;3531447;39;102412;-41
2021/08/05 06:47:33;;;;;;;;;;;19.50;99.90;;;18.60;77.44;100652.16;3530344;39;103333;-41
2021/08/05 06:50:01;;;;;;;;;;;19.50;99.90;;;18.63;77.99;100665.41;3530587;39;102404;-41
2021/08/05 06:52:28;;;;;;;;;;;19.60;99.90;;;18.61;78.13;100667.63;3530875;39;103077;-41
2021/08/05 06:54:55;;;;;;;;;;;19.60;99.90;;;18.61;77.07;100667.63;3530469;39;102304;-41
2021/08/05 06:57:22;;;;;;;;;;;19.50;99.90;;;18.61;76.66;100662.91;3530485;39;102316;-41
2021/08/05 06:59:50;;;;;;;;;;;19.50;99.90;;;18.68;77.37;100665.44;3530778;39;102595;-41
2021/08/05 07:02:17;;;;;;;;;;;19.50;99.90;;;18.61;77.72;100649.09;3530365;39;103430;-41
2021/08/05 07:04:44;;;;;;;;;;;19.60;99.90;;;18.70;77.56;100654.94;3530309;39;102165;-41
2021/08/05 07:07:12;;;;;;;;;;;19.70;99.90;;;18.79;75.58;100663.53;3530551;39;102139;-41
2021/08/05 07:09:39;;;;;;;;;;;19.70;99.90;;;18.79;77.20;100660.75;3530596;39;102744;-41
2021/08/05 07:12:06;;;;;;;;;;;19.70;99.90;;;18.76;76.94;100667.66;3530832;39;102216;-41
2021/08/05 07:14:34;;;;;;;;;;;19.70;99.90;;;18.77;76.65;100655.50;3530486;39;102322;-41
2021/08/05 07:17:01;;;;;;;;;;;19.70;99.90;;;18.78;77.40;100662.69;3530473;39;102927;-41
2021/08/05 07:19:32;;;;;;;;;;;19.70;99.90;;;18.76;76.79;100661.31;3530265;39;102405;-41
2021/08/05 07:22:00;;;;;;;;;;;19.70;99.90;;;18.69;76.67;100669.84;3530563;39;102899;-41
2021/08/05 07:24:27;;;;;;;;;;;19.60;99.90;;;18.71;75.53;100662.13;3530079;39;102570;-42
2021/08/05 07:26:54;;;;;;;;;;;19.60;99.90;;;18.88;75.96;100667.41;3530365;39;102298;-41
2021/08/05 07:29:21;;;;;;;;;;;19.70;99.90;;;19.07;75.38;100670.50;3530596;39;102490;-42
2021/08/05 07:31:49;;;;;;;;;;;19.80;99.90;;;19.19;74.42;100669.44;3529669;39;102159;-41
2021/08/05 07:34:16;;;;;;;;;;;20.00;99.90;;;19.25;73.82;100668.34;3530082;39;102434;-42
2021/08/05 07:36:43;;;;;;;;;;;20.10;99.90;;;19.36;74.60;100660.88;3530410;39;102461;-41
2021/08/05 07:39:11;;;;;;;;;;;20.10;99.90;;;19.59;73.49;100659.50;3530817;39;102984;-41
2021/08/05 07:41:41;;;;;;;;;;;20.30;99.90;;;19.66;69.49;100659.22;3530442;39;103149;-41
2021/08/05 07:44:09;;;;;;;;;;;20.40;99.90;;;19.96;70.73;100661.16;3530422;39;102550;-42
2021/08/05 07:46:37;;;;;;;;;;;20.60;99.90;;;20.10;70.72;100660.56;3530019;39;102274;-41
2021/08/05 07:49:04;;;;;;;;;;;20.80;99.90;;;20.01;69.28;100659.47;3530474;39;102237;-41
2021/08/05 07:51:32;;;;;;;;;;;20.70;99.90;;;19.97;69.21;100659.19;3529898;39;102389;-42
2021/08/05 07:53:59;;;;;;;;;;;20.70;99.90;;;19.92;71.45;100654.53;3530280;39;103056;-41
2021/08/05 07:56:27;;;;;;;;;;;20.70;99.90;;;20.09;72.80;100658.91;3530237;39;104400;-41
2021/08/05 07:58:54;;;;;;;;;;;20.80;99.90;;;20.30;71.00;100650.53;3530351;39;102248;-41
2021/08/05 08:01:22;;;;;;;;;;;21.00;99.90;;;20.50;68.48;100644.91;3530319;39;103579;-42
2021/08/05 08:03:50;;;;;;;;;;;21.20;99.90;;;20.63;68.35;100640.69;3530337;39;102417;-41
2021/08/05 08:06:17;;;;;;;;;;;21.30;99.90;;;20.70;67.44;100643.16;3530315;39;102321;-41
2021/08/05 08:08:44;;;;;;;;;;;21.30;99.90;;;20.82;67.16;100640.06;3530207;39;102480;-41
2021/08/05 08:11:12;;;;;;;;;;;21.50;99.90;;;20.77;65.37;100638.13;3529814;39;103059;-43
2021/08/05 08:13:39;;;;;;;;;;;21.50;99.90;;;20.82;67.41;100640.91;3530157;39;102244;-41
2021/08/05 08:16:07;;;;;;;;;;;21.60;99.90;;;20.83;62.84;100637.00;3658346;22;103045;-39
2021/08/05 08:18:34;;;;;;;;;;;21.60;99.90;;;20.71;63.74;100642.06;3530342;39;102424;-40
2021/08/05 08:21:02;;;;;;;;;;;21.50;99.90;;;20.51;66.28;100634.66;3520536;39;102367;-40
2021/08/05 08:23:29;;;;;;;;;;;21.40;99.90;;;20.54;67.99;100640.47;3520550;40;102410;-40
2021/08/05 08:25:56;;;;;;;;;;;21.40;99.90;;;20.54;67.48;100634.06;3520173;39;104380;-40
2021/08/05 08:28:24;;;;;;;;;;;21.30;99.90;;;20.48;67.91;100627.75;3520570;39;102210;-40
2021/08/05 08:30:51;;;;;;;;;;;21.30;99.90;;;20.39;68.12;100624.75;3520707;39;102806;-40
2021/08/05 08:33:18;;;;;;;;;;;21.20;99.90;;;20.51;68.63;100624.41;3520474;39;102422;-44
2021/08/05 08:35:46;;;;;;;;;;;21.30;99.90;;;20.53;66.08;100627.72;3520375;39;102403;-40
2021/08/05 08:38:13;;;;;;;;;;;21.40;99.90;;;20.67;67.55;100625.16;3520421;39;102365;-40
2021/08/05 08:40:40;;;;;;;;;;;21.40;99.90;;;20.70;68.43;100627.34;3520494;39;103097;-40
2021/08/05 08:43:08;;;;;;;;;;;21.50;99.90;;;20.76;67.19;100624.53;3521577;39;102457;-40
2021/08/05 08:45:36;;;;;;;;;;;21.50;99.90;;;20.74;66.92;100629.53;3521576;39;102238;-40
2021/08/05 08:48:06;;;;;;;;;;;21.50;99.90;;;20.68;66.07;100618.50;3522123;39;102269;-42
2021/08/05 08:50:35;;;;;;;;;;;21.50;99.90;;;20.52;64.97;100619.69;3521682;39;103130;-40
2021/08/05 08:53:07;;;;;;;;;;;21.30;99.90;;;20.44;66.69;100618.34;3521792;39;102327;-40
2021/08/05 08:55:35;;;;;;;;;;;21.30;99.90;;;20.50;68.03;100619.97;3521748;39;102354;-40
2021/08/05 08:58:04;;;;;;;;;;;21.30;99.90;;;20.58;66.80;100620.50;3521285;39;102475;-40
2021/08/05 09:00:36;;;;;;;;;;;21.30;99.90;;;20.65;67.12;100618.22;3521412;39;102264;-42
2021/08/05 09:03:06;;;;;;;;;;;21.40;99.90;;;20.62;67.22;100619.66;3521483;39;102831;-42
2021/08/05 09:05:33;;;;;;;;;;;21.40;99.90;;;20.67;65.89;100613.22;3521380;39;102227;-40
2021/08/05 09:08:03;;;;;;;;;;;21.50;99.90;;;20.79;66.80;100610.97;3521943;39;102223;-40
2021/08/05 09:10:32;;;;;;;;;;;21.50;99.90;;;20.96;65.74;100618.09;3521354;40;103187;-42
2021/08/05 09:13:01;;;;;;;;;;;21.70;99.90;;;21.04;65.55;100605.53;3521359;39;102285;-40
2021/08/05 09:15:38;;;;;;;;;;;21.80;99.90;;;21.12;67.23;100616.84;3521748;39;102282;-40
2021/08/05 09:18:26;;;;;;;;;;;21.90;99.90;;;21.14;65.03;100616.56;3521433;39;102487;-40
2021/08/05 09:21:09;;;;;;;;;;;21.90;99.90;;;21.11;64.44;100617.16;3521602;39;103345;-40
2021/08/05 09:23:54;;;;;;;;;;;21.90;99.90;;;20.94;63.32;100611.97;3521600;39;102547;-42
2021/08/05 09:26:31;;;;;;;;;;;21.80;99.90;;;20.92;65.94;100611.44;3521786;39;102277;-40
2021/08/05 09:29:07;;;;;;;;;;;21.80;99.90;;;20.90;65.67;100614.53;3521526;39;102155;-40
2021/08/05 09:31:36;;;;;;;;;;;21.80;99.90;;;20.91;66.91;100604.25;3521321;40;102317;-40
2021/08/05 09:34:15;;;;;;;;;;;21.70;99.90;;;20.92;66.84;100603.13;3521390;39;102352;-41
2021/08/05 09:36:44;;;;;;;;;;;21.80;99.90;;;20.91;63.19;100596.75;3521166;40;102162;-39
2021/08/05 09:39:25;;;;;;;;;;;21.70;99.90;;;21.02;65.94;100597.53;3521277;40;102915;-43
2021/08/05 09:42:01;;;;;;;;;;;21.80;99.90;;;21.12;62.01;100594.66;3521603;39;103007;-40
2021/08/05 09:44:37;;;;;;;;;;;21.90;99.90;;;21.20;66.99;100600.69;3521421;39;102303;-40
2021/08/05 09:47:09;;;;;;;;;;;22.00;99.90;;;21.30;67.17;100605.34;3521112;40;102326;-39
2021/08/05 09:49:38;;;;;;;;;;;22.00;99.90;;;21.47;66.63;100602.97;3521972;39;102241;-40
2021/08/05 09:52:09;;;;;;;;;;;22.10;99.90;;;21.56;63.62;100597.63;3521510;40;102357;-40
2021/08/05 09:54:40;;;;;;;;;;;22.30;99.90;;;21.66;64.41;100603.09;3520772;39;102336;-40
2021/08/05 09:57:08;;;;;;;;;;;22.40;99.90;;;21.65;62.54;100607.00;3521334;39;102752;-40
2021/08/05 09:59:51;;;;;;;;;;;22.40;99.90;;;21.77;63.17;100603.81;3521504;40;102065;-40
2021/08/05 10:02:20;;;;;;;;;;;22.40;99.90;;;21.89;61.69;100605.38;3521286;40;102422;-40
2021/08/05 10:04:48;;;;;;;;;;;22.50;99.90;;;21.98;62.34;100598.84;3521086;39;102307;-40
2021/08/05 10:07:16;;;;;;;;;;;22.60;99.90;;;22.08;60.08;100597.91;3521317;39;102398;-39
2021/08/05 10:09:44;;;;;;;;;;;22.70;99.90;;;22.12;58.12;100581.50;3521094;39;102344;-42
2021/08/05 10:12:12;;;;;;;;;;;22.90;99.90;;;22.26;61.61;100576.84;3521527;40;103411;-40
2021/08/05 10:14:40;;;;;;;;;;;22.90;99.90;;;22.44;61.15;100582.75;3521118;39;102083;-43
2021/08/05 10:17:09;;;;;;;;;;;23.00;99.90;;;22.41;57.72;100573.06;3520994;39;102230;-40
2021/08/05 10:19:39;;;;;;;;;;;23.10;99.90;;;22.51;59.96;100571.28;3521270;39;102283;-40
2021/08/05 10:22:09;;;;;;;;;;;23.10;99.90;;;22.82;63.05;100571.69;3521129;39;102285;-40
2021/08/05 10:24:43;;;;;;;;;;;23.40;99.90;;;22.97;56.92;100565.03;3521484;39;102328;-40
2021/08/05 10:27:12;;;;;;;;;;;23.50;99.90;;;23.08;57.81;100565.72;3521170;39;102360;-40
2021/08/05 10:29:41;;;;;;;;;;;23.60;99.90;;;23.48;60.46;100561.69;3521258;39;102351;-42
2021/08/05 10:32:11;;;;;;;;;;;23.90;99.90;;;23.81;54.56;100561.63;3521036;39;103289;-41
2021/08/05 10:34:39;;;;;;;;;;;24.20;99.90;;;23.97;51.85;100565.78;3521409;39;102428;-40
2021/08/05 10:37:11;;;;;;;;;;;24.50;99.90;;;24.02;54.29;100562.09;3521199;39;102303;-40
2021/08/05 10:39:43;;;;;;;;;;;24.50;99.90;;;24.18;53.32;100553.41;3521531;39;102288;-40
2021/08/05 10:42:17;;;;;;;;;;;24.70;99.90;;;24.41;59.40;100559.88;3521131;40;102321;-40
2021/08/05 10:44:47;;;;;;;;;;;24.90;99.90;;;24.58;51.62;100547.22;3521056;39;102698;-40
2021/08/05 10:47:22;;;;;;;;;;;25.10;99.90;;;24.45;49.35;100552.53;3520926;39;103112;-40
2021/08/05 10:49:53;;;;;;;;;;;25.20;99.90;;;24.70;52.23;100539.94;3521061;40;102161;-40
2021/08/05 10:52:36;;;;;;;;;;;25.20;99.90;;;24.77;49.29;100533.97;3521123;40;103166;-41
2021/08/05 10:55:15;;;;;;;;;;;25.30;99.90;;;24.96;51.68;100533.78;3520486;39;102288;-40
2021/08/05 10:57:44;;;;;;;;;;;25.50;99.90;;;24.98;46.99;100536.25;3521544;39;102298;-37
2021/08/05 11:00:16;;;;;;;;;;;25.50;99.90;;;25.17;52.42;100533.25;3521129;39;102339;-40
2021/08/05 11:02:44;;;;;;;;;;;;;;;25.45;49.40;100535.03;3521186;39;102274;-40
2021/08/05 11:05:33;;;;;;;;;;;25.70;99.90;;;25.19;46.10;100525.38;3520825;39;102818;-41
2021/08/05 11:08:09;;;;;;;;;;;25.80;98.60;;;24.58;45.67;100517.38;3517012;39;102446;-40
2021/08/05 11:10:37;;;;;;;;;;;25.50;97.50;;;24.77;51.38;100524.75;3521172;40;102499;-40
2021/08/05 11:13:07;;;;;;;;;;;25.50;99.90;;;24.89;49.75;100521.41;3520947;39;102371;-40